sensor_id;sensor_type;location;lat;lon;timestamp;temperature;humidity
21646;DHT22;10984;45.712;4.800;2022-08-01T00:00:26;23.30;99.90
21646;DHT22;10984;45.712;4.800;2022-08-01T00:02:52;23.30;99.90
21646;DHT22;10984;45.712;4.800;2022-08-01T00:05:17;23.30;99.90
21646;DHT22;10984;45.712;4.800;2022-08-01T00:07:43;23.30;99.90
21646;DHT22;10984;45.712;4.800;2022-08-01T00:10:28;23.30;99.90
21646;DHT22;10984;45.712;4.800;2022-08-01T00:12:53;23.20;99.90
21646;DHT22;10984;45.712;4.800;2022-08-01T00:15:19;23.20;99.90
21646;DHT22;10984;45.712;4.800;2022-08-01T00:17:44;23.20;99.90
21646;DHT22;10984;45.712;4.800;2022-08-01T00:20:13;23.10;99.90
21646;DHT22;10984;45.712;4.800;2022-08-01T00:22:39;23.00;99.90
21646;DHT22;10984;45.712;4.800;2022-08-01T00:25:05;23.00;99.90
21646;DHT22;10984;45.712;4.800;2022-08-01T00:27:31;22.90;99.90
21646;DHT22;10984;45.712;4.800;2022-08-01T00:29:57;22.90;99.90
21646;DHT22;10984;45.712;4.800;2022-08-01T00:32:23;22.90;99.90
21646;DHT22;10984;45.712;4.800;2022-08-01T00:34:49;22.80;99.90
21646;DHT22;10984;45.712;4.800;2022-08-01T00:37:14;22.80;99.90
21646;DHT22;10984;45.712;4.800;2022-08-01T00:39:40;22.80;99.90
21646;DHT22;10984;45.712;4.800;2022-08-01T00:42:11;22.70;99.90
21646;DHT22;10984;45.712;4.800;2022-08-01T00:44:37;22.80;99.90
21646;DHT22;10984;45.712;4.800;2022-08-01T00:47:04;22.70;99.90
21646;DHT22;10984;45.712;4.800;2022-08-01T00:49:30;22.70;99.90
21646;DHT22;10984;45.712;4.800;2022-08-01T00:51:56;22.70;99.90
21646;DHT22;10984;45.712;4.800;2022-08-01T00:54:25;22.70;99.90
21646;DHT22;10984;45.712;4.800;2022-08-01T00:56:51;22.60;99.90
21646;DHT22;10984;45.712;4.800;2022-08-01T00:59:18;22.60;99.90
21646;DHT22;10984;45.712;4.800;2022-08-01T01:01:44;22.60;99.90
21646;DHT22;10984;45.712;4.800;2022-08-01T01:04:10;22.60;99.90
21646;DHT22;10984;45.712;4.800;2022-08-01T01:18:47;22.50;99.90
21646;DHT22;10984;45.712;4.800;2022-08-01T01:27:22;22.40;99.90
21646;DHT22;10984;45.712;4.800;2022-08-01T01:29:52;22.30;99.90
21646;DHT22;10984;45.712;4.800;2022-08-01T01:38:28;22.20;99.90
21646;DHT22;10984;45.712;4.800;2022-08-01T01:40:56;22.20;99.90
21646;DHT22;10984;45.712;4.800;2022-08-01T01:43:23;22.10;99.90
21646;DHT22;10984;45.712;4.800;2022-08-01T01:45:50;22.10;99.90
21646;DHT22;10984;45.712;4.800;2022-08-01T01:48:18;22.10;99.90
21646;DHT22;10984;45.712;4.800;2022-08-01T01:51:03;22.00;99.90
21646;DHT22;10984;45.712;4.800;2022-08-01T01:53:32;22.00;99.90
21646;DHT22;10984;45.712;4.800;2022-08-01T01:55:58;22.00;99.90
21646;DHT22;10984;45.712;4.800;2022-08-01T01:58:27;22.10;99.90
21646;DHT22;10984;45.712;4.800;2022-08-01T02:00:55;22.00;99.90
21646;DHT22;10984;45.712;4.800;2022-08-01T02:03:22;22.00;99.90
21646;DHT22;10984;45.712;4.800;2022-08-01T02:05:51;22.00;99.90
21646;DHT22;10984;45.712;4.800;2022-08-01T02:08:17;22.00;99.90
21646;DHT22;10984;45.712;4.800;2022-08-01T02:10:44;22.00;99.90
21646;DHT22;10984;45.712;4.800;2022-08-01T02:13:32;22.00;99.90
21646;DHT22;10984;45.712;4.800;2022-08-01T02:15:58;22.00;99.90
21646;DHT22;10984;45.712;4.800;2022-08-01T02:18:24;21.90;99.90
21646;DHT22;10984;45.712;4.800;2022-08-01T02:20:52;21.90;99.90
21646;DHT22;10984;45.712;4.800;2022-08-01T02:23:20;21.90;99.90
21646;DHT22;10984;45.712;4.800;2022-08-01T02:25:50;22.00;99.90
21646;DHT22;10984;45.712;4.800;2022-08-01T02:28:30;21.90;99.90
21646;DHT22;10984;45.712;4.800;2022-08-01T02:31:02;21.90;99.90
21646;DHT22;10984;45.712;4.800;2022-08-01T02:36:34;21.90;99.90
21646;DHT22;10984;45.712;4.800;2022-08-01T02:39:20;21.90;99.90
21646;DHT22;10984;45.712;4.800;2022-08-01T02:41:48;21.90;99.90
21646;DHT22;10984;45.712;4.800;2022-08-01T02:44:23;21.80;99.90
21646;DHT22;10984;45.712;4.800;2022-08-01T02:46:54;21.80;99.90
21646;DHT22;10984;45.712;4.800;2022-08-01T02:49:23;21.80;99.90
21646;DHT22;10984;45.712;4.800;2022-08-01T02:51:50;21.80;99.90
21646;DHT22;10984;45.712;4.800;2022-08-01T02:54:18;21.80;99.90
21646;DHT22;10984;45.712;4.800;2022-08-01T02:56:47;21.80;99.90
21646;DHT22;10984;45.712;4.800;2022-08-01T02:59:16;21.80;99.90
21646;DHT22;10984;45.712;4.800;2022-08-01T03:01:43;21.80;99.90
21646;DHT22;10984;45.712;4.800;2022-08-01T03:04:11;21.80;99.90
21646;DHT22;10984;45.712;4.800;2022-08-01T03:06:37;21.80;99.90
21646;DHT22;10984;45.712;4.800;2022-08-01T03:09:04;21.70;99.90
21646;DHT22;10984;45.712;4.800;2022-08-01T03:11:31;21.70;99.90
21646;DHT22;10984;45.712;4.800;2022-08-01T03:14:02;21.60;99.90
21646;DHT22;10984;45.712;4.800;2022-08-01T03:16:28;21.60;99.90
21646;DHT22;10984;45.712;4.800;2022-08-01T03:18:57;21.60;99.90
21646;DHT22;10984;45.712;4.800;2022-08-01T03:21:25;21.50;99.90
21646;DHT22;10984;45.712;4.800;2022-08-01T03:23:53;21.40;99.90
21646;DHT22;10984;45.712;4.800;2022-08-01T03:26:26;21.40;99.90
21646;DHT22;10984;45.712;4.800;2022-08-01T03:28:52;21.30;99.90
21646;DHT22;10984;45.712;4.800;2022-08-01T03:31:20;21.30;99.90
21646;DHT22;10984;45.712;4.800;2022-08-01T03:33:46;21.20;99.90
21646;DHT22;10984;45.712;4.800;2022-08-01T03:36:12;21.20;99.90
21646;DHT22;10984;45.712;4.800;2022-08-01T03:38:40;21.10;99.90
21646;DHT22;10984;45.712;4.800;2022-08-01T03:41:09;21.10;99.90
21646;DHT22;10984;45.712;4.800;2022-08-01T03:43:49;21.10;99.90
21646;DHT22;10984;45.712;4.800;2022-08-01T03:49:23;21.00;99.90
21646;DHT22;10984;45.712;4.800;2022-08-01T03:51:51;21.10;99.90
21646;DHT22;10984;45.712;4.800;2022-08-01T03:54:21;21.10;99.90
21646;DHT22;10984;45.712;4.800;2022-08-01T03:56:50;21.20;99.90
21646;DHT22;10984;45.712;4.800;2022-08-01T03:59:17;21.20;99.90
21646;DHT22;10984;45.712;4.800;2022-08-01T04:01:45;21.20;99.90
21646;DHT22;10984;45.712;4.800;2022-08-01T04:04:12;21.10;99.90
21646;DHT22;10984;45.712;4.800;2022-08-01T04:06:38;21.10;99.90
21646;DHT22;10984;45.712;4.800;2022-08-01T04:09:07;21.10;99.90
21646;DHT22;10984;45.712;4.800;2022-08-01T04:11:32;21.10;99.90
21646;DHT22;10984;45.712;4.800;2022-08-01T04:13:58;21.00;99.90
21646;DHT22;10984;45.712;4.800;2022-08-01T04:16:24;21.00;99.90
21646;DHT22;10984;45.712;4.800;2022-08-01T04:18:50;21.00;99.90
21646;DHT22;10984;45.712;4.800;2022-08-01T04:21:20;20.90;99.90
21646;DHT22;10984;45.712;4.800;2022-08-01T04:23:49;20.80;99.90
21646;DHT22;10984;45.712;4.800;2022-08-01T04:26:18;20.80;99.90
21646;DHT22;10984;45.712;4.800;2022-08-01T04:28:46;20.80;99.90
21646;DHT22;10984;45.712;4.800;2022-08-01T04:31:14;20.80;99.90
21646;DHT22;10984;45.712;4.800;2022-08-01T04:33:45;20.80;99.90
21646;DHT22;10984;45.712;4.800;2022-08-01T04:36:12;20.90;99.90
21646;DHT22;10984;45.712;4.800;2022-08-01T04:38:41;20.90;99.90
21646;DHT22;10984;45.712;4.800;2022-08-01T04:41:11;20.90;99.90
21646;DHT22;10984;45.712;4.800;2022-08-01T04:43:38;21.00;99.90
21646;DHT22;10984;45.712;4.800;2022-08-01T04:46:06;21.10;99.90
21646;DHT22;10984;45.712;4.800;2022-08-01T04:48:33;21.10;99.90
21646;DHT22;10984;45.712;4.800;2022-08-01T04:51:00;21.20;99.90
21646;DHT22;10984;45.712;4.800;2022-08-01T04:53:26;21.40;99.90
21646;DHT22;10984;45.712;4.800;2022-08-01T04:55:53;21.90;99.90
21646;DHT22;10984;45.712;4.800;2022-08-01T04:58:18;22.70;99.90
21646;DHT22;10984;45.712;4.800;2022-08-01T05:00:47;23.50;99.90
21646;DHT22;10984;45.712;4.800;2022-08-01T05:03:13;24.50;99.90
21646;DHT22;10984;45.712;4.800;2022-08-01T05:05:39;25.30;99.90
21646;DHT22;10984;45.712;4.800;2022-08-01T05:08:04;25.60;99.90
21646;DHT22;10984;45.712;4.800;2022-08-01T05:10:31;25.70;99.90
21646;DHT22;10984;45.712;4.800;2022-08-01T05:12:57;25.70;99.90
21646;DHT22;10984;45.712;4.800;2022-08-01T05:15:23;25.70;99.90
21646;DHT22;10984;45.712;4.800;2022-08-01T05:17:48;25.80;99.90
21646;DHT22;10984;45.712;4.800;2022-08-01T05:20:14;26.00;99.90
21646;DHT22;10984;45.712;4.800;2022-08-01T05:22:40;26.60;99.90
21646;DHT22;10984;45.712;4.800;2022-08-01T05:25:06;27.30;99.90
21646;DHT22;10984;45.712;4.800;2022-08-01T05:27:32;28.40;99.90
21646;DHT22;10984;45.712;4.800;2022-08-01T05:29:57;29.50;99.90
21646;DHT22;10984;45.712;4.800;2022-08-01T05:32:23;30.50;99.90
21646;DHT22;10984;45.712;4.800;2022-08-01T05:34:49;31.50;99.90
21646;DHT22;10984;45.712;4.800;2022-08-01T05:37:15;32.30;99.90
21646;DHT22;10984;45.712;4.800;2022-08-01T05:39:40;33.20;99.90
21646;DHT22;10984;45.712;4.800;2022-08-01T05:42:06;33.90;98.90
21646;DHT22;10984;45.712;4.800;2022-08-01T05:44:32;34.70;98.00
21646;DHT22;10984;45.712;4.800;2022-08-01T05:46:58;35.30;96.50
21646;DHT22;10984;45.712;4.800;2022-08-01T05:49:23;35.70;95.20
21646;DHT22;10984;45.712;4.800;2022-08-01T05:51:49;36.00;94.80
21646;DHT22;10984;45.712;4.800;2022-08-01T05:54:15;36.40;94.20
21646;DHT22;10984;45.712;4.800;2022-08-01T05:56:40;36.80;93.80
21646;DHT22;10984;45.712;4.800;2022-08-01T05:59:06;37.30;93.20
21646;DHT22;10984;45.712;4.800;2022-08-01T06:01:32;37.60;92.80
21646;DHT22;10984;45.712;4.800;2022-08-01T06:03:58;37.40;92.30
21646;DHT22;10984;45.712;4.800;2022-08-01T06:06:23;37.70;92.00
21646;DHT22;10984;45.712;4.800;2022-08-01T06:08:49;38.10;91.00
21646;DHT22;10984;45.712;4.800;2022-08-01T06:11:15;38.40;90.70
21646;DHT22;10984;45.712;4.800;2022-08-01T06:13:41;38.80;90.30
21646;DHT22;10984;45.712;4.800;2022-08-01T06:16:07;39.10;90.00
21646;DHT22;10984;45.712;4.800;2022-08-01T06:18:32;39.40;89.50
21646;DHT22;10984;45.712;4.800;2022-08-01T06:20:58;39.60;88.00
21646;DHT22;10984;45.712;4.800;2022-08-01T06:23:24;39.80;87.70
21646;DHT22;10984;45.712;4.800;2022-08-01T06:25:53;40.10;86.70
21646;DHT22;10984;45.712;4.800;2022-08-01T06:28:20;39.90;85.90
21646;DHT22;10984;45.712;4.800;2022-08-01T06:30:45;39.70;85.30
21646;DHT22;10984;45.712;4.800;2022-08-01T06:33:11;39.50;85.60
21646;DHT22;10984;45.712;4.800;2022-08-01T06:35:37;39.50;84.60
21646;DHT22;10984;45.712;4.800;2022-08-01T06:38:02;39.80;84.10
21646;DHT22;10984;45.712;4.800;2022-08-01T06:40:28;39.50;84.20
21646;DHT22;10984;45.712;4.800;2022-08-01T06:42:54;39.60;84.00
21646;DHT22;10984;45.712;4.800;2022-08-01T06:45:20;39.30;83.70
21646;DHT22;10984;45.712;4.800;2022-08-01T06:47:48;38.90;84.10
21646;DHT22;10984;45.712;4.800;2022-08-01T06:50:14;38.80;84.30
21646;DHT22;10984;45.712;4.800;2022-08-01T06:52:40;38.30;84.20
21646;DHT22;10984;45.712;4.800;2022-08-01T06:55:07;38.10;84.80
21646;DHT22;10984;45.712;4.800;2022-08-01T06:57:33;38.00;84.90
21646;DHT22;10984;45.712;4.800;2022-08-01T07:00:05;37.60;85.10
21646;DHT22;10984;45.712;4.800;2022-08-01T07:02:36;37.40;85.70
21646;DHT22;10984;45.712;4.800;2022-08-01T07:05:02;37.70;85.40
21646;DHT22;10984;45.712;4.800;2022-08-01T07:07:29;37.90;85.30
21646;DHT22;10984;45.712;4.800;2022-08-01T07:09:55;37.40;85.40
21646;DHT22;10984;45.712;4.800;2022-08-01T07:12:21;37.30;85.10
21646;DHT22;10984;45.712;4.800;2022-08-01T07:14:46;37.20;85.50
21646;DHT22;10984;45.712;4.800;2022-08-01T07:17:12;37.20;85.50
21646;DHT22;10984;45.712;4.800;2022-08-01T07:19:38;36.90;86.40
21646;DHT22;10984;45.712;4.800;2022-08-01T07:22:03;36.80;86.30
21646;DHT22;10984;45.712;4.800;2022-08-01T07:24:29;37.10;86.10
21646;DHT22;10984;45.712;4.800;2022-08-01T07:26:55;37.00;86.00
21646;DHT22;10984;45.712;4.800;2022-08-01T07:29:23;36.60;86.20
21646;DHT22;10984;45.712;4.800;2022-08-01T07:31:51;36.70;86.20
21646;DHT22;10984;45.712;4.800;2022-08-01T07:34:17;36.30;86.90
21646;DHT22;10984;45.712;4.800;2022-08-01T07:36:42;36.40;86.80
21646;DHT22;10984;45.712;4.800;2022-08-01T07:39:08;36.50;86.50
21646;DHT22;10984;45.712;4.800;2022-08-01T07:41:34;36.50;86.30
21646;DHT22;10984;45.712;4.800;2022-08-01T07:43:59;36.30;86.60
21646;DHT22;10984;45.712;4.800;2022-08-01T07:46:25;36.00;87.00
21646;DHT22;10984;45.712;4.800;2022-08-01T07:48:50;36.00;87.30
21646;DHT22;10984;45.712;4.800;2022-08-01T07:51:16;36.10;87.00
21646;DHT22;10984;45.712;4.800;2022-08-01T07:53:42;35.60;86.70
21646;DHT22;10984;45.712;4.800;2022-08-01T07:56:07;35.30;87.70
21646;DHT22;10984;45.712;4.800;2022-08-01T07:58:33;34.80;88.00
21646;DHT22;10984;45.712;4.800;2022-08-01T08:00:59;33.80;89.10
21646;DHT22;10984;45.712;4.800;2022-08-01T08:03:25;32.80;90.70
21646;DHT22;10984;45.712;4.800;2022-08-01T08:05:51;32.20;90.90
21646;DHT22;10984;45.712;4.800;2022-08-01T08:08:16;31.60;91.20
21646;DHT22;10984;45.712;4.800;2022-08-01T08:10:43;31.30;91.00
21646;DHT22;10984;45.712;4.800;2022-08-01T08:13:09;31.10;91.40
21646;DHT22;10984;45.712;4.800;2022-08-01T08:15:35;30.90;91.50
21646;DHT22;10984;45.712;4.800;2022-08-01T08:18:03;30.80;91.30
21646;DHT22;10984;45.712;4.800;2022-08-01T08:20:28;30.60;91.50
21646;DHT22;10984;45.712;4.800;2022-08-01T08:22:55;30.60;91.50
21646;DHT22;10984;45.712;4.800;2022-08-01T08:25:21;30.60;91.80
21646;DHT22;10984;45.712;4.800;2022-08-01T08:27:47;30.60;91.60
21646;DHT22;10984;45.712;4.800;2022-08-01T08:30:13;30.50;91.80
21646;DHT22;10984;45.712;4.800;2022-08-01T08:32:40;30.60;91.80
21646;DHT22;10984;45.712;4.800;2022-08-01T08:35:06;30.50;91.80
21646;DHT22;10984;45.712;4.800;2022-08-01T08:37:33;30.50;91.80
21646;DHT22;10984;45.712;4.800;2022-08-01T08:39:59;30.40;92.00
21646;DHT22;10984;45.712;4.800;2022-08-01T08:42:25;30.30;92.00
21646;DHT22;10984;45.712;4.800;2022-08-01T08:44:51;30.30;92.30
21646;DHT22;10984;45.712;4.800;2022-08-01T08:47:19;30.40;92.40
21646;DHT22;10984;45.712;4.800;2022-08-01T08:49:48;30.50;92.20
21646;DHT22;10984;45.712;4.800;2022-08-01T08:52:15;30.40;92.50
21646;DHT22;10984;45.712;4.800;2022-08-01T08:54:43;30.50;92.50
21646;DHT22;10984;45.712;4.800;2022-08-01T08:57:10;30.50;92.60
21646;DHT22;10984;45.712;4.800;2022-08-01T08:59:38;30.50;92.60
21646;DHT22;10984;45.712;4.800;2022-08-01T09:02:04;30.40;92.80
21646;DHT22;10984;45.712;4.800;2022-08-01T09:04:31;30.40;92.70
21646;DHT22;10984;45.712;4.800;2022-08-01T09:06:56;30.40;92.70
21646;DHT22;10984;45.712;4.800;2022-08-01T09:09:25;30.40;92.60
21646;DHT22;10984;45.712;4.800;2022-08-01T09:11:51;30.50;92.70
21646;DHT22;10984;45.712;4.800;2022-08-01T09:14:18;30.40;92.50
21646;DHT22;10984;45.712;4.800;2022-08-01T09:17:08;30.60;92.80
21646;DHT22;10984;45.712;4.800;2022-08-01T09:19:38;30.70;92.40
21646;DHT22;10984;45.712;4.800;2022-08-01T09:22:06;30.70;92.70
21646;DHT22;10984;45.712;4.800;2022-08-01T09:24:33;30.70;92.50
21646;DHT22;10984;45.712;4.800;2022-08-01T09:27:00;30.70;92.60
21646;DHT22;10984;45.712;4.800;2022-08-01T09:29:28;30.60;92.60
21646;DHT22;10984;45.712;4.800;2022-08-01T09:31:55;30.60;92.80
21646;DHT22;10984;45.712;4.800;2022-08-01T09:34:40;30.70;92.70
21646;DHT22;10984;45.712;4.800;2022-08-01T09:37:05;30.70;92.80
21646;DHT22;10984;45.712;4.800;2022-08-01T09:42:35;30.70;92.90
21646;DHT22;10984;45.712;4.800;2022-08-01T09:45:01;30.70;92.80
21646;DHT22;10984;45.712;4.800;2022-08-01T09:47:37;30.50;92.70
21646;DHT22;10984;45.712;4.800;2022-08-01T09:50:03;30.50;92.80
21646;DHT22;10984;45.712;4.800;2022-08-01T09:52:29;30.50;92.90
21646;DHT22;10984;45.712;4.800;2022-08-01T09:55:14;30.50;92.80
21646;DHT22;10984;45.712;4.800;2022-08-01T09:58:05;30.60;92.90
21646;DHT22;10984;45.712;4.800;2022-08-01T10:00:32;30.50;92.90
21646;DHT22;10984;45.712;4.800;2022-08-01T10:02:59;30.50;93.00
21646;DHT22;10984;45.712;4.800;2022-08-01T10:05:43;30.80;92.40
21646;DHT22;10984;45.712;4.800;2022-08-01T10:08:09;30.70;92.00
21646;DHT22;10984;45.712;4.800;2022-08-01T10:10:36;30.60;91.90
21646;DHT22;10984;45.712;4.800;2022-08-01T10:13:01;30.70;91.90
21646;DHT22;10984;45.712;4.800;2022-08-01T10:15:28;30.70;92.30
21646;DHT22;10984;45.712;4.800;2022-08-01T10:17:58;30.60;92.20
21646;DHT22;10984;45.712;4.800;2022-08-01T10:23:10;30.70;92.00
21646;DHT22;10984;45.712;4.800;2022-08-01T10:25:40;30.80;92.00
21646;DHT22;10984;45.712;4.800;2022-08-01T10:28:27;30.80;91.90
21646;DHT22;10984;45.712;4.800;2022-08-01T10:30:57;30.80;91.80
21646;DHT22;10984;45.712;4.800;2022-08-01T10:33:23;30.80;91.10
21646;DHT22;10984;45.712;4.800;2022-08-01T10:35:50;30.70;91.10
21646;DHT22;10984;45.712;4.800;2022-08-01T10:38:17;30.80;91.10
21646;DHT22;10984;45.712;4.800;2022-08-01T10:40:43;30.90;91.30
21646;DHT22;10984;45.712;4.800;2022-08-01T10:43:10;30.80;91.40
21646;DHT22;10984;45.712;4.800;2022-08-01T10:45:36;30.80;91.10
21646;DHT22;10984;45.712;4.800;2022-08-01T10:48:22;30.80;91.40
21646;DHT22;10984;45.712;4.800;2022-08-01T10:50:52;30.80;91.00
21646;DHT22;10984;45.712;4.800;2022-08-01T10:53:20;30.90;90.90
21646;DHT22;10984;45.712;4.800;2022-08-01T11:01:38;31.00;90.80
21646;DHT22;10984;45.712;4.800;2022-08-01T11:06:52;30.90;90.60
21646;DHT22;10984;45.712;4.800;2022-08-01T11:12:21;31.10;91.10
21646;DHT22;10984;45.712;4.800;2022-08-01T11:21:08;31.00;90.70
21646;DHT22;10984;45.712;4.800;2022-08-01T11:23:47;31.10;90.70
21646;DHT22;10984;45.712;4.800;2022-08-01T11:26:14;31.20;90.50
21646;DHT22;10984;45.712;4.800;2022-08-01T11:28:41;31.30;90.60
21646;DHT22;10984;45.712;4.800;2022-08-01T11:33:55;31.40;90.40
21646;DHT22;10984;45.712;4.800;2022-08-01T11:36:21;31.30;90.00
21646;DHT22;10984;45.712;4.800;2022-08-01T11:41:33;31.20;89.40
21646;DHT22;10984;45.712;4.800;2022-08-01T11:44:18;31.40;90.00
21646;DHT22;10984;45.712;4.800;2022-08-01T11:49:48;31.40;89.10
21646;DHT22;10984;45.712;4.800;2022-08-01T11:52:38;31.50;88.90
21646;DHT22;10984;45.712;4.800;2022-08-01T11:55:08;31.50;88.60
21646;DHT22;10984;45.712;4.800;2022-08-01T11:57:35;31.40;87.70
21646;DHT22;10984;45.712;4.800;2022-08-01T12:00:21;31.50;88.50
21646;DHT22;10984;45.712;4.800;2022-08-01T12:02:57;31.60;88.40
21646;DHT22;10984;45.712;4.800;2022-08-01T12:05:23;31.70;86.50
21646;DHT22;10984;45.712;4.800;2022-08-01T12:08:08;31.70;86.70
21646;DHT22;10984;45.712;4.800;2022-08-01T12:10:35;31.80;87.00
21646;DHT22;10984;45.712;4.800;2022-08-01T12:13:19;31.80;87.00
21646;DHT22;10984;45.712;4.800;2022-08-01T12:15:46;31.70;88.20
21646;DHT22;10984;45.712;4.800;2022-08-01T12:18:12;31.80;89.30
21646;DHT22;10984;45.712;4.800;2022-08-01T12:20:40;31.70;88.60
21646;DHT22;10984;45.712;4.800;2022-08-01T12:23:10;31.80;88.70
21646;DHT22;10984;45.712;4.800;2022-08-01T12:25:37;31.80;88.90
21646;DHT22;10984;45.712;4.800;2022-08-01T12:28:07;32.00;88.60
21646;DHT22;10984;45.712;4.800;2022-08-01T12:30:34;32.10;88.90
21646;DHT22;10984;45.712;4.800;2022-08-01T12:33:06;32.20;89.60
21646;DHT22;10984;45.712;4.800;2022-08-01T12:35:32;32.20;89.60
21646;DHT22;10984;45.712;4.800;2022-08-01T12:40:45;32.20;90.60
21646;DHT22;10984;45.712;4.800;2022-08-01T12:43:17;32.20;90.00
21646;DHT22;10984;45.712;4.800;2022-08-01T12:45:44;32.20;90.30
21646;DHT22;10984;45.712;4.800;2022-08-01T12:48:13;32.10;90.60
21646;DHT22;10984;45.712;4.800;2022-08-01T12:50:42;32.20;90.60
21646;DHT22;10984;45.712;4.800;2022-08-01T12:53:08;32.20;90.10
21646;DHT22;10984;45.712;4.800;2022-08-01T12:58:46;32.20;90.40
21646;DHT22;10984;45.712;4.800;2022-08-01T13:01:11;32.20;90.60
21646;DHT22;10984;45.712;4.800;2022-08-01T13:03:38;32.30;90.90
21646;DHT22;10984;45.712;4.800;2022-08-01T13:06:23;32.20;91.10
21646;DHT22;10984;45.712;4.800;2022-08-01T13:08:49;32.40;90.90
21646;DHT22;10984;45.712;4.800;2022-08-01T13:11:15;32.50;91.00
21646;DHT22;10984;45.712;4.800;2022-08-01T13:13:45;32.60;90.20
21646;DHT22;10984;45.712;4.800;2022-08-01T13:16:16;32.60;90.30
21646;DHT22;10984;45.712;4.800;2022-08-01T13:18:49;32.60;90.00
21646;DHT22;10984;45.712;4.800;2022-08-01T13:21:34;32.70;90.00
21646;DHT22;10984;45.712;4.800;2022-08-01T13:27:04;32.60;90.00
21646;DHT22;10984;45.712;4.800;2022-08-01T13:29:32;32.60;89.70
21646;DHT22;10984;45.712;4.800;2022-08-01T13:31:59;32.60;90.50
21646;DHT22;10984;45.712;4.800;2022-08-01T13:34:44;32.40;90.50
21646;DHT22;10984;45.712;4.800;2022-08-01T13:37:10;32.50;90.60
21646;DHT22;10984;45.712;4.800;2022-08-01T13:39:35;32.50;90.80
21646;DHT22;10984;45.712;4.800;2022-08-01T13:42:13;32.60;90.50
21646;DHT22;10984;45.712;4.800;2022-08-01T13:44:40;32.70;90.60
21646;DHT22;10984;45.712;4.800;2022-08-01T13:47:06;32.70;90.20
21646;DHT22;10984;45.712;4.800;2022-08-01T13:49:32;32.80;90.20
21646;DHT22;10984;45.712;4.800;2022-08-01T13:51:58;32.80;90.30
21646;DHT22;10984;45.712;4.800;2022-08-01T13:54:25;32.70;90.10
21646;DHT22;10984;45.712;4.800;2022-08-01T13:56:51;32.80;90.20
21646;DHT22;10984;45.712;4.800;2022-08-01T13:59:17;32.90;89.80
21646;DHT22;10984;45.712;4.800;2022-08-01T14:01:43;32.80;90.00
21646;DHT22;10984;45.712;4.800;2022-08-01T14:04:09;32.80;90.00
21646;DHT22;10984;45.712;4.800;2022-08-01T14:06:34;32.80;90.20
21646;DHT22;10984;45.712;4.800;2022-08-01T14:09:01;32.90;90.00
21646;DHT22;10984;45.712;4.800;2022-08-01T14:11:27;33.00;89.20
21646;DHT22;10984;45.712;4.800;2022-08-01T14:13:53;33.00;89.00
21646;DHT22;10984;45.712;4.800;2022-08-01T14:16:19;33.20;88.40
21646;DHT22;10984;45.712;4.800;2022-08-01T14:18:44;33.20;88.40
21646;DHT22;10984;45.712;4.800;2022-08-01T14:21:10;33.10;88.00
21646;DHT22;10984;45.712;4.800;2022-08-01T14:23:36;33.10;88.30
21646;DHT22;10984;45.712;4.800;2022-08-01T14:26:02;33.10;89.70
21646;DHT22;10984;45.712;4.800;2022-08-01T14:28:27;33.20;88.20
21646;DHT22;10984;45.712;4.800;2022-08-01T14:30:58;33.20;86.80
21646;DHT22;10984;45.712;4.800;2022-08-01T14:33:24;33.30;86.70
21646;DHT22;10984;45.712;4.800;2022-08-01T14:35:50;33.40;85.80
21646;DHT22;10984;45.712;4.800;2022-08-01T14:38:15;33.40;86.40
21646;DHT22;10984;45.712;4.800;2022-08-01T14:40:41;33.30;88.20
21646;DHT22;10984;45.712;4.800;2022-08-01T14:43:07;33.20;85.90
21646;DHT22;10984;45.712;4.800;2022-08-01T14:45:33;33.40;86.40
21646;DHT22;10984;45.712;4.800;2022-08-01T14:47:59;33.50;86.20
21646;DHT22;10984;45.712;4.800;2022-08-01T14:50:24;33.60;85.60
21646;DHT22;10984;45.712;4.800;2022-08-01T14:52:52;33.80;85.20
21646;DHT22;10984;45.712;4.800;2022-08-01T14:55:18;33.80;85.20
21646;DHT22;10984;45.712;4.800;2022-08-01T14:57:47;33.70;85.30
21646;DHT22;10984;45.712;4.800;2022-08-01T15:00:12;33.80;85.60
21646;DHT22;10984;45.712;4.800;2022-08-01T15:02:39;33.70;85.40
21646;DHT22;10984;45.712;4.800;2022-08-01T15:05:05;33.80;85.70
21646;DHT22;10984;45.712;4.800;2022-08-01T15:07:31;33.70;85.40
21646;DHT22;10984;45.712;4.800;2022-08-01T15:09:57;33.70;85.80
21646;DHT22;10984;45.712;4.800;2022-08-01T15:12:23;33.60;86.00
21646;DHT22;10984;45.712;4.800;2022-08-01T15:14:49;33.50;85.60
21646;DHT22;10984;45.712;4.800;2022-08-01T15:17:33;33.40;85.90
21646;DHT22;10984;45.712;4.800;2022-08-01T15:22:44;33.10;86.40
21646;DHT22;10984;45.712;4.800;2022-08-01T15:25:10;33.10;85.90
21646;DHT22;10984;45.712;4.800;2022-08-01T15:27:36;33.10;86.10
21646;DHT22;10984;45.712;4.800;2022-08-01T15:30:03;33.00;86.20
21646;DHT22;10984;45.712;4.800;2022-08-01T15:32:29;32.90;86.50
21646;DHT22;10984;45.712;4.800;2022-08-01T15:34:55;32.80;86.50
21646;DHT22;10984;45.712;4.800;2022-08-01T15:37:20;32.80;87.00
21646;DHT22;10984;45.712;4.800;2022-08-01T15:39:47;32.60;86.60
21646;DHT22;10984;45.712;4.800;2022-08-01T15:42:14;32.60;87.00
21646;DHT22;10984;45.712;4.800;2022-08-01T15:44:40;32.60;87.10
21646;DHT22;10984;45.712;4.800;2022-08-01T15:47:07;32.80;87.30
21646;DHT22;10984;45.712;4.800;2022-08-01T15:49:34;32.90;86.80
21646;DHT22;10984;45.712;4.800;2022-08-01T15:52:02;32.90;86.90
21646;DHT22;10984;45.712;4.800;2022-08-01T15:54:28;32.80;86.90
21646;DHT22;10984;45.712;4.800;2022-08-01T15:56:54;32.70;87.30
21646;DHT22;10984;45.712;4.800;2022-08-01T15:59:19;32.60;87.70
21646;DHT22;10984;45.712;4.800;2022-08-01T16:01:45;32.60;87.50
21646;DHT22;10984;45.712;4.800;2022-08-01T16:04:14;32.60;87.40
21646;DHT22;10984;45.712;4.800;2022-08-01T16:06:40;32.70;87.40
21646;DHT22;10984;45.712;4.800;2022-08-01T16:09:06;32.80;87.70
21646;DHT22;10984;45.712;4.800;2022-08-01T16:11:32;32.90;87.70
21646;DHT22;10984;45.712;4.800;2022-08-01T16:13:58;32.90;87.10
21646;DHT22;10984;45.712;4.800;2022-08-01T16:16:24;33.00;86.20
21646;DHT22;10984;45.712;4.800;2022-08-01T16:18:50;33.00;85.40
21646;DHT22;10984;45.712;4.800;2022-08-01T16:21:16;33.20;84.50
21646;DHT22;10984;45.712;4.800;2022-08-01T16:23:43;33.20;84.60
21646;DHT22;10984;45.712;4.800;2022-08-01T16:26:09;33.20;83.30
21646;DHT22;10984;45.712;4.800;2022-08-01T16:28:35;33.20;83.30
21646;DHT22;10984;45.712;4.800;2022-08-01T16:31:01;33.30;83.00
21646;DHT22;10984;45.712;4.800;2022-08-01T16:33:28;33.20;83.70
21646;DHT22;10984;45.712;4.800;2022-08-01T16:35:54;33.20;83.60
21646;DHT22;10984;45.712;4.800;2022-08-01T16:38:19;33.00;83.90
21646;DHT22;10984;45.712;4.800;2022-08-01T16:40:48;32.90;84.20
21646;DHT22;10984;45.712;4.800;2022-08-01T16:43:16;32.70;84.60
21646;DHT22;10984;45.712;4.800;2022-08-01T16:45:42;32.60;86.30
21646;DHT22;10984;45.712;4.800;2022-08-01T16:50:53;32.30;85.50